EDAC/ADC METAR and TAF weather

Enter ICAO airport designator
Station Type Date Time Source
EDAC METAR 2019/06/16 06:50 UTC NOAA

EDAC 160650Z AUTO 15003KT 120V200 7000 // BKN063/// BKN073/// OVC087/// 16/14 Q1020


Station Type Date Time Source
EDAC Decoded METAR 2019/06/16 06:50 UTC NOAA

Altenburg Nobitz, Germany (EDAC) 50-58N 012-30E
Jun 16, 2019 - 02:50 AM EDT / 2019.06.16 0650 UTC
Wind: from the SSE (150 degrees) at 3 MPH (3 KT) (direction variable):0
Visibility: 4 mile(s):0
Sky conditions: overcast
Temperature: 60 F (16 C)
Dew Point: 57 F (14 C)
Relative Humidity: 87%
Pressure (altimeter): 30.12 in. Hg (1020 hPa)
ob: EDAC 160650Z AUTO 15003KT 120V200 7000 // BKN063/// BKN073/// OVC087/// 16/14 Q1020
cycle: 7

Station Type Date Time Source
EDAC TAF UTC NOAA

Error!

Example: see airport list